| Date | Time | Temp. (oF) | Dew Point (oF) | Rel. Hum. (%) | Press. (in.) | Wind Dir. | Wind Speed (mph) | Hourly Rainfall (in.) |
|
|---|---|---|---|---|---|---|---|---|---|
| 1 | 01/30 | 00:00 | 28 | 24 | 87 | 29.92 | SSE | 0 | 0.00 |
| 2 | 01/29 | 23:00 | 28 | 24 | 87 | 29.93 | SSE | 0 | 0.00 |
| 3 | 01/29 | 22:00 | 28 | 25 | 90 | 29.96 | S | 4 | 0.00 |
| 4 | 01/29 | 21:00 | 27 | 25 | 93 | 29.98 | S | 3 | 0.00 |
| 5 | 01/29 | 20:00 | 26 | 24 | 94 | 30.01 | SSE | 9 | 0.00 |
| 6 | 01/29 | 19:00 | 25 | 24 | 96 | 30.04 | S | 4 | 0.02 |
| 7 | 01/29 | 18:00 | 25 | 21 | 88 | 30.07 | SSE | 5 | 0.00 |
| 8 | 01/29 | 17:00 | 29 | 15 | 56 | 30.06 | SSE | 9 | 0.00 |
| 9 | 01/29 | 16:00 | 29 | 14 | 55 | 30.06 | SE | 7 | 0.00 |
| 10 | 01/29 | 15:00 | 29 | 14 | 54 | 30.08 | ESE | 6 | 0.00 |
| 11 | 01/29 | 14:00 | 29 | 11 | 47 | 30.13 | S | 7 | 0.00 |
| 12 | 01/29 | 13:00 | 30 | 12 | 47 | 30.16 | S | 7 | 0.00 |
| 13 | 01/29 | 12:00 | 29 | 11 | 48 | 30.20 | SSE | 7 | 0.00 |
| 14 | 01/29 | 11:00 | 25 | 13 | 61 | 30.24 | SE | 4 | 0.00 |
| 15 | 01/29 | 10:00 | 22 | 13 | 68 | 30.28 | SSE | 0 | 0.00 |
| 16 | 01/29 | 09:00 | 18 | 13 | 82 | 30.29 | E | 0 | 0.00 |
| 17 | 01/29 | 08:00 | 11 | 9 | 95 | 30.30 | E | 0 | 0.00 |
| 18 | 01/29 | 07:00 | 9 | 7 | 94 | 30.32 | WNW | 0 | 0.00 |
| 19 | 01/29 | 06:00 | 9 | 7 | 92 | 30.32 | SSW | 0 | 0.00 |
| 20 | 01/29 | 05:00 | 10 | 7 | 90 | 30.31 | E | 0 | 0.00 |
| 21 | 01/29 | 04:00 | 11 | 8 | 91 | 30.31 | N | 0 | 0.00 |
| 22 | 01/29 | 03:00 | 11 | 7 | 86 | 30.31 | SSW | 0 | 0.00 |
| 23 | 01/29 | 02:00 | 14 | 8 | 80 | 30.31 | WSW | 0 | 0.00 |
| 24 | 01/29 | 01:00 | 14 | 8 | 79 | 30.31 | W | 0 | 0.00 |